sensor_id;sensor_type;location;lat;lon;timestamp;P1;durP1;ratioP1;P2;durP2;ratioP2
32611;SDS011;19030;49.478;8.986;2023-02-18T00:00:32;10.02;;;5.40;;
32611;SDS011;19030;49.478;8.986;2023-02-18T00:02:33;10.63;;;5.55;;
32611;SDS011;19030;49.478;8.986;2023-02-18T00:04:33;8.60;;;5.03;;
32611;SDS011;19030;49.478;8.986;2023-02-18T00:06:34;8.32;;;5.50;;
32611;SDS011;19030;49.478;8.986;2023-02-18T00:08:35;8.98;;;5.28;;
32611;SDS011;19030;49.478;8.986;2023-02-18T00:10:35;9.57;;;5.85;;
32611;SDS011;19030;49.478;8.986;2023-02-18T00:12:36;8.10;;;5.15;;
32611;SDS011;19030;49.478;8.986;2023-02-18T00:14:37;8.52;;;5.15;;
32611;SDS011;19030;49.478;8.986;2023-02-18T00:16:37;10.48;;;5.97;;
32611;SDS011;19030;49.478;8.986;2023-02-18T00:18:38;9.73;;;6.15;;
32611;SDS011;19030;49.478;8.986;2023-02-18T00:20:38;9.25;;;5.65;;
32611;SDS011;19030;49.478;8.986;2023-02-18T00:22:39;9.07;;;5.30;;
32611;SDS011;19030;49.478;8.986;2023-02-18T00:24:39;8.77;;;5.40;;
32611;SDS011;19030;49.478;8.986;2023-02-18T00:26:40;11.32;;;6.22;;
32611;SDS011;19030;49.478;8.986;2023-02-18T00:28:41;9.25;;;5.55;;
32611;SDS011;19030;49.478;8.986;2023-02-18T00:30:42;9.60;;;5.82;;
32611;SDS011;19030;49.478;8.986;2023-02-18T00:32:43;8.90;;;5.45;;
32611;SDS011;19030;49.478;8.986;2023-02-18T00:34:43;9.15;;;5.82;;
32611;SDS011;19030;49.478;8.986;2023-02-18T00:36:44;10.65;;;6.60;;
32611;SDS011;19030;49.478;8.986;2023-02-18T00:38:49;9.48;;;5.70;;
32611;SDS011;19030;49.478;8.986;2023-02-18T00:40:52;10.38;;;6.57;;
32611;SDS011;19030;49.478;8.986;2023-02-18T00:42:53;9.77;;;5.65;;
32611;SDS011;19030;49.478;8.986;2023-02-18T00:44:54;10.52;;;6.03;;
32611;SDS011;19030;49.478;8.986;2023-02-18T00:46:54;11.35;;;6.00;;
32611;SDS011;19030;49.478;8.986;2023-02-18T00:48:55;10.43;;;6.20;;
32611;SDS011;19030;49.478;8.986;2023-02-18T00:50:56;9.57;;;6.10;;
32611;SDS011;19030;49.478;8.986;2023-02-18T00:52:57;9.75;;;5.90;;
32611;SDS011;19030;49.478;8.986;2023-02-18T00:54:57;10.20;;;6.20;;
32611;SDS011;19030;49.478;8.986;2023-02-18T00:56:58;10.95;;;6.22;;
32611;SDS011;19030;49.478;8.986;2023-02-18T00:58:59;10.15;;;6.32;;
32611;SDS011;19030;49.478;8.986;2023-02-18T01:01:00;10.13;;;6.00;;
32611;SDS011;19030;49.478;8.986;2023-02-18T01:03:03;9.95;;;6.15;;
32611;SDS011;19030;49.478;8.986;2023-02-18T01:05:06;10.90;;;6.30;;
32611;SDS011;19030;49.478;8.986;2023-02-18T01:07:07;9.88;;;6.00;;
32611;SDS011;19030;49.478;8.986;2023-02-18T01:09:09;10.82;;;6.32;;
32611;SDS011;19030;49.478;8.986;2023-02-18T01:11:10;8.43;;;5.30;;
32611;SDS011;19030;49.478;8.986;2023-02-18T01:13:14;13.75;;;5.90;;
32611;SDS011;19030;49.478;8.986;2023-02-18T01:15:15;9.90;;;5.75;;
32611;SDS011;19030;49.478;8.986;2023-02-18T01:17:17;12.35;;;6.25;;
32611;SDS011;19030;49.478;8.986;2023-02-18T01:19:17;10.68;;;5.88;;
32611;SDS011;19030;49.478;8.986;2023-02-18T01:21:18;10.75;;;6.55;;
32611;SDS011;19030;49.478;8.986;2023-02-18T01:23:18;10.43;;;6.13;;
32611;SDS011;19030;49.478;8.986;2023-02-18T01:25:19;10.15;;;5.80;;
32611;SDS011;19030;49.478;8.986;2023-02-18T01:27:19;9.60;;;6.10;;
32611;SDS011;19030;49.478;8.986;2023-02-18T01:29:20;10.00;;;5.97;;
32611;SDS011;19030;49.478;8.986;2023-02-18T01:31:21;10.05;;;5.82;;
32611;SDS011;19030;49.478;8.986;2023-02-18T01:33:21;9.05;;;5.57;;
32611;SDS011;19030;49.478;8.986;2023-02-18T01:35:22;9.70;;;5.70;;
32611;SDS011;19030;49.478;8.986;2023-02-18T01:37:23;10.23;;;5.97;;
32611;SDS011;19030;49.478;8.986;2023-02-18T01:39:24;8.60;;;5.50;;
32611;SDS011;19030;49.478;8.986;2023-02-18T01:41:25;9.73;;;5.95;;
32611;SDS011;19030;49.478;8.986;2023-02-18T01:43:25;11.30;;;6.03;;
32611;SDS011;19030;49.478;8.986;2023-02-18T01:47:32;9.75;;;6.00;;
32611;SDS011;19030;49.478;8.986;2023-02-18T01:49:33;9.05;;;5.40;;
32611;SDS011;19030;49.478;8.986;2023-02-18T01:51:40;10.38;;;5.50;;
32611;SDS011;19030;49.478;8.986;2023-02-18T01:53:50;9.50;;;5.57;;
32611;SDS011;19030;49.478;8.986;2023-02-18T01:56:00;11.07;;;6.22;;
32611;SDS011;19030;49.478;8.986;2023-02-18T01:58:03;9.90;;;6.25;;
32611;SDS011;19030;49.478;8.986;2023-02-18T02:00:06;9.38;;;5.40;;
32611;SDS011;19030;49.478;8.986;2023-02-18T02:02:16;10.38;;;5.82;;
32611;SDS011;19030;49.478;8.986;2023-02-18T02:04:20;9.95;;;5.45;;
32611;SDS011;19030;49.478;8.986;2023-02-18T02:06:21;9.82;;;5.85;;
32611;SDS011;19030;49.478;8.986;2023-02-18T02:08:23;9.13;;;5.53;;
32611;SDS011;19030;49.478;8.986;2023-02-18T02:10:24;8.90;;;5.78;;
32611;SDS011;19030;49.478;8.986;2023-02-18T02:12:41;9.25;;;5.30;;
32611;SDS011;19030;49.478;8.986;2023-02-18T02:24:52;11.00;;;5.35;;
32611;SDS011;19030;49.478;8.986;2023-02-18T02:27:20;9.43;;;5.93;;
32611;SDS011;19030;49.478;8.986;2023-02-18T02:29:33;10.25;;;6.45;;
32611;SDS011;19030;49.478;8.986;2023-02-18T02:36:30;10.23;;;7.00;;
32611;SDS011;19030;49.478;8.986;2023-02-18T02:38:44;9.50;;;6.63;;
32611;SDS011;19030;49.478;8.986;2023-02-18T02:41:07;11.65;;;6.85;;
32611;SDS011;19030;49.478;8.986;2023-02-18T02:43:34;11.30;;;6.20;;
32611;SDS011;19030;49.478;8.986;2023-02-18T02:46:02;10.40;;;6.38;;
32611;SDS011;19030;49.478;8.986;2023-02-18T02:48:09;10.40;;;6.57;;
32611;SDS011;19030;49.478;8.986;2023-02-18T02:53:24;13.10;;;7.05;;
32611;SDS011;19030;49.478;8.986;2023-02-18T02:55:29;11.60;;;6.80;;
32611;SDS011;19030;49.478;8.986;2023-02-18T02:59:43;11.85;;;6.72;;
32611;SDS011;19030;49.478;8.986;2023-02-18T03:13:55;10.32;;;6.13;;
32611;SDS011;19030;49.478;8.986;2023-02-18T03:16:03;12.82;;;7.45;;
32611;SDS011;19030;49.478;8.986;2023-02-18T03:20:40;12.20;;;7.15;;
32611;SDS011;19030;49.478;8.986;2023-02-18T03:22:47;10.15;;;6.68;;
32611;SDS011;19030;49.478;8.986;2023-02-18T03:24:51;9.82;;;6.25;;
32611;SDS011;19030;49.478;8.986;2023-02-18T03:26:57;10.87;;;6.53;;
32611;SDS011;19030;49.478;8.986;2023-02-18T03:29:03;11.60;;;6.68;;
32611;SDS011;19030;49.478;8.986;2023-02-18T03:31:08;11.75;;;6.88;;
32611;SDS011;19030;49.478;8.986;2023-02-18T03:33:13;10.57;;;6.40;;
32611;SDS011;19030;49.478;8.986;2023-02-18T03:35:17;10.82;;;6.43;;
32611;SDS011;19030;49.478;8.986;2023-02-18T03:37:19;10.10;;;6.20;;
32611;SDS011;19030;49.478;8.986;2023-02-18T03:39:22;10.35;;;6.72;;
32611;SDS011;19030;49.478;8.986;2023-02-18T03:41:26;11.93;;;7.35;;
32611;SDS011;19030;49.478;8.986;2023-02-18T03:43:27;12.73;;;7.30;;
32611;SDS011;19030;49.478;8.986;2023-02-18T03:45:28;9.30;;;5.90;;
32611;SDS011;19030;49.478;8.986;2023-02-18T03:47:29;9.43;;;6.13;;
32611;SDS011;19030;49.478;8.986;2023-02-18T03:49:29;11.90;;;6.70;;
32611;SDS011;19030;49.478;8.986;2023-02-18T03:51:32;9.95;;;6.10;;
32611;SDS011;19030;49.478;8.986;2023-02-18T03:53:33;9.93;;;5.85;;
32611;SDS011;19030;49.478;8.986;2023-02-18T03:55:33;10.15;;;5.75;;
32611;SDS011;19030;49.478;8.986;2023-02-18T03:57:34;12.68;;;5.78;;
32611;SDS011;19030;49.478;8.986;2023-02-18T03:59:34;9.82;;;6.25;;
32611;SDS011;19030;49.478;8.986;2023-02-18T04:01:35;8.82;;;5.20;;
32611;SDS011;19030;49.478;8.986;2023-02-18T04:03:35;11.77;;;5.55;;
32611;SDS011;19030;49.478;8.986;2023-02-18T04:05:36;11.00;;;5.88;;
32611;SDS011;19030;49.478;8.986;2023-02-18T04:07:37;9.13;;;5.40;;
32611;SDS011;19030;49.478;8.986;2023-02-18T04:09:37;9.23;;;5.53;;
32611;SDS011;19030;49.478;8.986;2023-02-18T04:11:38;7.90;;;5.22;;
32611;SDS011;19030;49.478;8.986;2023-02-18T04:13:40;11.93;;;5.97;;
32611;SDS011;19030;49.478;8.986;2023-02-18T04:15:40;12.40;;;6.47;;
32611;SDS011;19030;49.478;8.986;2023-02-18T04:17:41;9.50;;;5.75;;
32611;SDS011;19030;49.478;8.986;2023-02-18T04:19:41;11.98;;;6.25;;
32611;SDS011;19030;49.478;8.986;2023-02-18T04:21:42;9.68;;;5.72;;
32611;SDS011;19030;49.478;8.986;2023-02-18T04:23:43;11.05;;;6.00;;
32611;SDS011;19030;49.478;8.986;2023-02-18T04:25:43;11.60;;;6.32;;
32611;SDS011;19030;49.478;8.986;2023-02-18T04:27:44;10.23;;;6.10;;
32611;SDS011;19030;49.478;8.986;2023-02-18T04:29:44;10.02;;;5.35;;
32611;SDS011;19030;49.478;8.986;2023-02-18T04:31:45;12.20;;;5.68;;
32611;SDS011;19030;49.478;8.986;2023-02-18T04:33:45;9.57;;;5.70;;
32611;SDS011;19030;49.478;8.986;2023-02-18T04:35:46;9.25;;;5.65;;
32611;SDS011;19030;49.478;8.986;2023-02-18T04:37:46;9.70;;;6.18;;
32611;SDS011;19030;49.478;8.986;2023-02-18T04:39:47;8.88;;;5.47;;
32611;SDS011;19030;49.478;8.986;2023-02-18T04:41:47;8.98;;;5.57;;
32611;SDS011;19030;49.478;8.986;2023-02-18T04:43:48;9.57;;;6.30;;
32611;SDS011;19030;49.478;8.986;2023-02-18T04:45:49;9.73;;;5.93;;
32611;SDS011;19030;49.478;8.986;2023-02-18T04:47:49;9.63;;;5.78;;
32611;SDS011;19030;49.478;8.986;2023-02-18T04:49:50;10.65;;;5.82;;
32611;SDS011;19030;49.478;8.986;2023-02-18T04:51:50;13.02;;;6.85;;
32611;SDS011;19030;49.478;8.986;2023-02-18T04:53:51;9.38;;;5.95;;
32611;SDS011;19030;49.478;8.986;2023-02-18T04:55:52;11.38;;;5.57;;
32611;SDS011;19030;49.478;8.986;2023-02-18T04:57:53;10.70;;;6.50;;
32611;SDS011;19030;49.478;8.986;2023-02-18T04:59:53;11.40;;;6.55;;
32611;SDS011;19030;49.478;8.986;2023-02-18T05:01:54;10.88;;;5.90;;
32611;SDS011;19030;49.478;8.986;2023-02-18T05:03:55;10.15;;;6.05;;
32611;SDS011;19030;49.478;8.986;2023-02-18T05:05:55;10.50;;;6.45;;
32611;SDS011;19030;49.478;8.986;2023-02-18T05:07:56;10.32;;;6.35;;
32611;SDS011;19030;49.478;8.986;2023-02-18T05:09:57;10.32;;;7.00;;
32611;SDS011;19030;49.478;8.986;2023-02-18T05:11:57;11.23;;;6.40;;
32611;SDS011;19030;49.478;8.986;2023-02-18T05:13:58;11.90;;;6.65;;
32611;SDS011;19030;49.478;8.986;2023-02-18T05:16:02;9.82;;;6.25;;
32611;SDS011;19030;49.478;8.986;2023-02-18T05:18:02;9.70;;;6.78;;
32611;SDS011;19030;49.478;8.986;2023-02-18T05:20:04;10.27;;;6.05;;
32611;SDS011;19030;49.478;8.986;2023-02-18T05:22:05;9.73;;;6.20;;
32611;SDS011;19030;49.478;8.986;2023-02-18T05:24:05;9.88;;;5.60;;
32611;SDS011;19030;49.478;8.986;2023-02-18T05:26:07;12.90;;;8.63;;
32611;SDS011;19030;49.478;8.986;2023-02-18T05:28:08;12.18;;;7.57;;
32611;SDS011;19030;49.478;8.986;2023-02-18T05:30:08;13.25;;;7.65;;
32611;SDS011;19030;49.478;8.986;2023-02-18T05:32:09;10.98;;;7.82;;
32611;SDS011;19030;49.478;8.986;2023-02-18T05:34:10;15.18;;;8.32;;
32611;SDS011;19030;49.478;8.986;2023-02-18T05:36:10;11.60;;;7.65;;
32611;SDS011;19030;49.478;8.986;2023-02-18T05:38:11;12.32;;;7.50;;
32611;SDS011;19030;49.478;8.986;2023-02-18T05:40:11;11.43;;;7.65;;
32611;SDS011;19030;49.478;8.986;2023-02-18T05:42:12;14.60;;;9.40;;
32611;SDS011;19030;49.478;8.986;2023-02-18T05:44:13;25.23;;;15.75;;
32611;SDS011;19030;49.478;8.986;2023-02-18T05:46:29;13.70;;;8.63;;
32611;SDS011;19030;49.478;8.986;2023-02-18T05:48:30;11.18;;;7.65;;
32611;SDS011;19030;49.478;8.986;2023-02-18T05:50:30;13.10;;;8.32;;
32611;SDS011;19030;49.478;8.986;2023-02-18T05:52:31;14.02;;;8.43;;
32611;SDS011;19030;49.478;8.986;2023-02-18T05:54:31;12.68;;;8.18;;
32611;SDS011;19030;49.478;8.986;2023-02-18T05:56:33;10.13;;;6.65;;
32611;SDS011;19030;49.478;8.986;2023-02-18T05:58:33;11.43;;;7.38;;
32611;SDS011;19030;49.478;8.986;2023-02-18T06:00:34;12.20;;;7.75;;
32611;SDS011;19030;49.478;8.986;2023-02-18T06:02:35;11.40;;;6.47;;
32611;SDS011;19030;49.478;8.986;2023-02-18T06:04:36;12.95;;;6.43;;
32611;SDS011;19030;49.478;8.986;2023-02-18T06:06:36;12.25;;;7.35;;
32611;SDS011;19030;49.478;8.986;2023-02-18T06:08:37;11.27;;;7.18;;
32611;SDS011;19030;49.478;8.986;2023-02-18T06:10:38;11.65;;;8.13;;
32611;SDS011;19030;49.478;8.986;2023-02-18T06:12:39;14.35;;;7.28;;
32611;SDS011;19030;49.478;8.986;2023-02-18T06:14:40;11.40;;;7.90;;
32611;SDS011;19030;49.478;8.986;2023-02-18T06:16:41;12.32;;;7.55;;
32611;SDS011;19030;49.478;8.986;2023-02-18T06:18:41;12.80;;;7.55;;
32611;SDS011;19030;49.478;8.986;2023-02-18T06:20:42;13.23;;;7.30;;
32611;SDS011;19030;49.478;8.986;2023-02-18T06:22:43;12.27;;;7.70;;
32611;SDS011;19030;49.478;8.986;2023-02-18T06:24:43;13.30;;;7.65;;
32611;SDS011;19030;49.478;8.986;2023-02-18T06:26:44;11.13;;;6.97;;
32611;SDS011;19030;49.478;8.986;2023-02-18T06:28:44;12.10;;;7.40;;
32611;SDS011;19030;49.478;8.986;2023-02-18T06:30:45;12.95;;;6.82;;
32611;SDS011;19030;49.478;8.986;2023-02-18T06:32:46;10.82;;;6.93;;
32611;SDS011;19030;49.478;8.986;2023-02-18T06:34:46;16.00;;;8.68;;
32611;SDS011;19030;49.478;8.986;2023-02-18T06:36:47;11.45;;;6.68;;
32611;SDS011;19030;49.478;8.986;2023-02-18T06:38:47;10.77;;;6.65;;
32611;SDS011;19030;49.478;8.986;2023-02-18T06:40:48;17.55;;;10.82;;
32611;SDS011;19030;49.478;8.986;2023-02-18T06:42:49;14.77;;;9.32;;
32611;SDS011;19030;49.478;8.986;2023-02-18T06:44:50;15.20;;;9.38;;
32611;SDS011;19030;49.478;8.986;2023-02-18T06:46:50;13.85;;;8.25;;
32611;SDS011;19030;49.478;8.986;2023-02-18T06:48:51;12.65;;;8.23;;
32611;SDS011;19030;49.478;8.986;2023-02-18T06:50:51;12.35;;;7.50;;
32611;SDS011;19030;49.478;8.986;2023-02-18T06:52:52;11.32;;;7.43;;
32611;SDS011;19030;49.478;8.986;2023-02-18T06:54:52;11.40;;;7.68;;
32611;SDS011;19030;49.478;8.986;2023-02-18T06:56:53;12.15;;;7.63;;
32611;SDS011;19030;49.478;8.986;2023-02-18T06:58:53;13.30;;;8.65;;
32611;SDS011;19030;49.478;8.986;2023-02-18T07:00:54;12.60;;;7.15;;
32611;SDS011;19030;49.478;8.986;2023-02-18T07:02:54;13.02;;;7.82;;
32611;SDS011;19030;49.478;8.986;2023-02-18T07:04:55;11.63;;;7.90;;
32611;SDS011;19030;49.478;8.986;2023-02-18T07:06:56;14.73;;;9.10;;
32611;SDS011;19030;49.478;8.986;2023-02-18T07:08:56;10.50;;;6.40;;
32611;SDS011;19030;49.478;8.986;2023-02-18T07:10:57;12.75;;;8.60;;
32611;SDS011;19030;49.478;8.986;2023-02-18T07:12:57;14.25;;;8.23;;
32611;SDS011;19030;49.478;8.986;2023-02-18T07:14:58;13.50;;;8.27;;
32611;SDS011;19030;49.478;8.986;2023-02-18T07:16:58;15.38;;;8.57;;
32611;SDS011;19030;49.478;8.986;2023-02-18T07:18:59;14.00;;;8.32;;
32611;SDS011;19030;49.478;8.986;2023-02-18T07:20:59;13.02;;;8.43;;
32611;SDS011;19030;49.478;8.986;2023-02-18T07:23:00;13.30;;;9.55;;
32611;SDS011;19030;49.478;8.986;2023-02-18T07:25:01;13.50;;;8.00;;
32611;SDS011;19030;49.478;8.986;2023-02-18T07:27:02;16.08;;;9.18;;
32611;SDS011;19030;49.478;8.986;2023-02-18T07:29:02;14.70;;;9.00;;
32611;SDS011;19030;49.478;8.986;2023-02-18T07:31:03;13.57;;;9.32;;
32611;SDS011;19030;49.478;8.986;2023-02-18T07:33:04;14.10;;;9.73;;
32611;SDS011;19030;49.478;8.986;2023-02-18T07:35:05;13.85;;;8.88;;
32611;SDS011;19030;49.478;8.986;2023-02-18T07:37:06;14.45;;;8.48;;
32611;SDS011;19030;49.478;8.986;2023-02-18T07:39:08;13.57;;;8.55;;
32611;SDS011;19030;49.478;8.986;2023-02-18T07:41:16;13.00;;;8.85;;
32611;SDS011;19030;49.478;8.986;2023-02-18T07:43:18;12.35;;;8.45;;
32611;SDS011;19030;49.478;8.986;2023-02-18T07:45:19;12.80;;;8.55;;
32611;SDS011;19030;49.478;8.986;2023-02-18T07:47:19;12.75;;;8.50;;
32611;SDS011;19030;49.478;8.986;2023-02-18T07:49:20;17.35;;;9.55;;
32611;SDS011;19030;49.478;8.986;2023-02-18T07:51:21;13.70;;;8.10;;
32611;SDS011;19030;49.478;8.986;2023-02-18T07:53:22;11.00;;;7.43;;
32611;SDS011;19030;49.478;8.986;2023-02-18T07:55:22;10.10;;;7.05;;
32611;SDS011;19030;49.478;8.986;2023-02-18T07:57:23;11.48;;;7.25;;
32611;SDS011;19030;49.478;8.986;2023-02-18T07:59:23;11.52;;;7.20;;
32611;SDS011;19030;49.478;8.986;2023-02-18T08:01:24;13.93;;;7.63;;
32611;SDS011;19030;49.478;8.986;2023-02-18T08:03:25;10.95;;;6.45;;
32611;SDS011;19030;49.478;8.986;2023-02-18T08:05:28;11.77;;;7.00;;
32611;SDS011;19030;49.478;8.986;2023-02-18T08:07:28;10.07;;;6.32;;
32611;SDS011;19030;49.478;8.986;2023-02-18T08:09:29;9.38;;;6.03;;
32611;SDS011;19030;49.478;8.986;2023-02-18T08:11:30;9.77;;;6.05;;
32611;SDS011;19030;49.478;8.986;2023-02-18T08:13:31;13.23;;;7.80;;
32611;SDS011;19030;49.478;8.986;2023-02-18T08:15:31;11.30;;;6.50;;
32611;SDS011;19030;49.478;8.986;2023-02-18T08:17:32;10.70;;;6.25;;
32611;SDS011;19030;49.478;8.986;2023-02-18T08:19:33;10.57;;;7.10;;
32611;SDS011;19030;49.478;8.986;2023-02-18T08:21:33;12.98;;;8.00;;
32611;SDS011;19030;49.478;8.986;2023-02-18T08:23:34;88.15;;;50.17;;
32611;SDS011;19030;49.478;8.986;2023-02-18T08:25:34;52.55;;;30.85;;
32611;SDS011;19030;49.478;8.986;2023-02-18T08:27:35;156.00;;;82.40;;
32611;SDS011;19030;49.478;8.986;2023-02-18T08:29:35;88.75;;;48.72;;
32611;SDS011;19030;49.478;8.986;2023-02-18T08:31:36;30.33;;;26.60;;
32611;SDS011;19030;49.478;8.986;2023-02-18T08:33:36;12.50;;;8.85;;
32611;SDS011;19030;49.478;8.986;2023-02-18T08:35:37;13.20;;;7.50;;
32611;SDS011;19030;49.478;8.986;2023-02-18T08:37:38;10.68;;;6.38;;
32611;SDS011;19030;49.478;8.986;2023-02-18T08:39:38;14.27;;;9.73;;
32611;SDS011;19030;49.478;8.986;2023-02-18T08:41:39;10.90;;;7.07;;
32611;SDS011;19030;49.478;8.986;2023-02-18T08:43:40;11.15;;;7.18;;
32611;SDS011;19030;49.478;8.986;2023-02-18T08:45:41;12.70;;;9.35;;
32611;SDS011;19030;49.478;8.986;2023-02-18T08:47:42;11.65;;;5.75;;
32611;SDS011;19030;49.478;8.986;2023-02-18T08:49:43;9.35;;;5.57;;
32611;SDS011;19030;49.478;8.986;2023-02-18T08:51:43;8.88;;;5.25;;
32611;SDS011;19030;49.478;8.986;2023-02-18T08:53:44;9.70;;;5.60;;
32611;SDS011;19030;49.478;8.986;2023-02-18T08:55:46;9.32;;;5.35;;
32611;SDS011;19030;49.478;8.986;2023-02-18T08:57:47;8.75;;;4.95;;
32611;SDS011;19030;49.478;8.986;2023-02-18T08:59:48;8.57;;;4.95;;
32611;SDS011;19030;49.478;8.986;2023-02-18T09:01:48;10.25;;;5.43;;
32611;SDS011;19030;49.478;8.986;2023-02-18T09:03:49;9.90;;;5.82;;
32611;SDS011;19030;49.478;8.986;2023-02-18T09:05:50;9.40;;;5.70;;
32611;SDS011;19030;49.478;8.986;2023-02-18T09:07:50;8.82;;;5.32;;
32611;SDS011;19030;49.478;8.986;2023-02-18T09:09:51;10.55;;;6.00;;
32611;SDS011;19030;49.478;8.986;2023-02-18T09:11:51;8.80;;;5.10;;
32611;SDS011;19030;49.478;8.986;2023-02-18T09:13:52;9.43;;;5.03;;
32611;SDS011;19030;49.478;8.986;2023-02-18T09:15:59;10.38;;;6.15;;
32611;SDS011;19030;49.478;8.986;2023-02-18T09:18:03;9.52;;;5.63;;
32611;SDS011;19030;49.478;8.986;2023-02-18T09:20:04;9.63;;;5.38;;
32611;SDS011;19030;49.478;8.986;2023-02-18T09:22:05;10.35;;;5.38;;
32611;SDS011;19030;49.478;8.986;2023-02-18T09:24:05;9.23;;;5.38;;
32611;SDS011;19030;49.478;8.986;2023-02-18T09:26:07;9.07;;;5.72;;
32611;SDS011;19030;49.478;8.986;2023-02-18T09:28:11;7.82;;;4.95;;
32611;SDS011;19030;49.478;8.986;2023-02-18T09:30:12;9.65;;;5.60;;
32611;SDS011;19030;49.478;8.986;2023-02-18T09:32:13;12.50;;;6.45;;
32611;SDS011;19030;49.478;8.986;2023-02-18T09:34:13;9.85;;;5.97;;
32611;SDS011;19030;49.478;8.986;2023-02-18T09:36:14;10.48;;;5.95;;
32611;SDS011;19030;49.478;8.986;2023-02-18T09:38:15;8.52;;;4.93;;
32611;SDS011;19030;49.478;8.986;2023-02-18T09:42:31;15.77;;;8.27;;
32611;SDS011;19030;49.478;8.986;2023-02-18T09:44:35;45.25;;;19.30;;
32611;SDS011;19030;49.478;8.986;2023-02-18T09:46:39;11.65;;;7.15;;
32611;SDS011;19030;49.478;8.986;2023-02-18T09:48:48;10.38;;;5.43;;
32611;SDS011;19030;49.478;8.986;2023-02-18T09:50:51;11.50;;;7.05;;
32611;SDS011;19030;49.478;8.986;2023-02-18T09:52:52;9.95;;;6.47;;
32611;SDS011;19030;49.478;8.986;2023-02-18T09:54:53;9.45;;;5.53;;
32611;SDS011;19030;49.478;8.986;2023-02-18T09:56:53;10.30;;;6.38;;
32611;SDS011;19030;49.478;8.986;2023-02-18T09:58:54;9.02;;;5.38;;
32611;SDS011;19030;49.478;8.986;2023-02-18T10:05:18;9.57;;;5.78;;
32611;SDS011;19030;49.478;8.986;2023-02-18T10:07:25;9.73;;;5.80;;
32611;SDS011;19030;49.478;8.986;2023-02-18T10:09:33;10.30;;;6.28;;
32611;SDS011;19030;49.478;8.986;2023-02-18T10:11:42;10.05;;;5.53;;
32611;SDS011;19030;49.478;8.986;2023-02-18T10:13:45;8.20;;;5.07;;
32611;SDS011;19030;49.478;8.986;2023-02-18T10:15:46;9.00;;;5.32;;
32611;SDS011;19030;49.478;8.986;2023-02-18T10:17:47;8.80;;;5.28;;
32611;SDS011;19030;49.478;8.986;2023-02-18T10:19:49;8.55;;;5.30;;
32611;SDS011;19030;49.478;8.986;2023-02-18T10:21:53;9.63;;;5.32;;
32611;SDS011;19030;49.478;8.986;2023-02-18T10:23:57;9.32;;;5.32;;
32611;SDS011;19030;49.478;8.986;2023-02-18T10:26:01;8.15;;;4.95;;
32611;SDS011;19030;49.478;8.986;2023-02-18T10:28:05;8.25;;;5.03;;
32611;SDS011;19030;49.478;8.986;2023-02-18T10:30:16;10.40;;;5.30;;
32611;SDS011;19030;49.478;8.986;2023-02-18T10:32:43;10.18;;;5.18;;
32611;SDS011;19030;49.478;8.986;2023-02-18T10:34:47;8.15;;;4.85;;
32611;SDS011;19030;49.478;8.986;2023-02-18T10:50:51;8.57;;;5.43;;
32611;SDS011;19030;49.478;8.986;2023-02-18T10:52:54;8.68;;;5.10;;
32611;SDS011;19030;49.478;8.986;2023-02-18T10:54:58;8.43;;;5.28;;
32611;SDS011;19030;49.478;8.986;2023-02-18T10:57:03;9.15;;;5.18;;
32611;SDS011;19030;49.478;8.986;2023-02-18T10:59:11;10.10;;;5.45;;
32611;SDS011;19030;49.478;8.986;2023-02-18T11:01:20;8.73;;;4.63;;
32611;SDS011;19030;49.478;8.986;2023-02-18T11:03:23;8.40;;;5.10;;
32611;SDS011;19030;49.478;8.986;2023-02-18T11:05:25;9.63;;;4.75;;
32611;SDS011;19030;49.478;8.986;2023-02-18T11:07:33;8.45;;;5.10;;
32611;SDS011;19030;49.478;8.986;2023-02-18T11:09:40;8.00;;;4.97;;
32611;SDS011;19030;49.478;8.986;2023-02-18T11:12:12;8.57;;;4.78;;
32611;SDS011;19030;49.478;8.986;2023-02-18T11:14:34;9.52;;;5.15;;
32611;SDS011;19030;49.478;8.986;2023-02-18T11:16:42;9.32;;;5.10;;
32611;SDS011;19030;49.478;8.986;2023-02-18T11:18:44;8.80;;;5.40;;
32611;SDS011;19030;49.478;8.986;2023-02-18T11:20:53;9.32;;;5.57;;
32611;SDS011;19030;49.478;8.986;2023-02-18T11:25:23;8.82;;;5.43;;
32611;SDS011;19030;49.478;8.986;2023-02-18T11:27:42;10.38;;;6.13;;
32611;SDS011;19030;49.478;8.986;2023-02-18T11:29:45;9.68;;;6.13;;
32611;SDS011;19030;49.478;8.986;2023-02-18T11:31:50;10.18;;;6.70;;
32611;SDS011;19030;49.478;8.986;2023-02-18T11:33:55;12.43;;;7.05;;
32611;SDS011;19030;49.478;8.986;2023-02-18T11:36:02;12.25;;;7.22;;
32611;SDS011;19030;49.478;8.986;2023-02-18T11:38:25;10.75;;;6.63;;
32611;SDS011;19030;49.478;8.986;2023-02-18T11:40:34;9.85;;;5.93;;
32611;SDS011;19030;49.478;8.986;2023-02-18T11:42:35;11.68;;;6.95;;
32611;SDS011;19030;49.478;8.986;2023-02-18T11:44:36;10.15;;;6.18;;
32611;SDS011;19030;49.478;8.986;2023-02-18T11:46:40;10.48;;;7.10;;
32611;SDS011;19030;49.478;8.986;2023-02-18T11:49:09;11.05;;;6.85;;
32611;SDS011;19030;49.478;8.986;2023-02-18T11:53:29;13.43;;;7.30;;
32611;SDS011;19030;49.478;8.986;2023-02-18T11:57:36;12.77;;;8.50;;
32611;SDS011;19030;49.478;8.986;2023-02-18T11:59:39;13.05;;;8.70;;
32611;SDS011;19030;49.478;8.986;2023-02-18T12:01:49;13.50;;;9.40;;
32611;SDS011;19030;49.478;8.986;2023-02-18T12:03:57;15.50;;;9.63;;
32611;SDS011;19030;49.478;8.986;2023-02-18T12:06:31;13.23;;;9.00;;
32611;SDS011;19030;49.478;8.986;2023-02-18T12:08:38;17.05;;;9.20;;
32611;SDS011;19030;49.478;8.986;2023-02-18T12:10:49;12.88;;;8.65;;
32611;SDS011;19030;49.478;8.986;2023-02-18T12:12:55;12.20;;;8.38;;
32611;SDS011;19030;49.478;8.986;2023-02-18T12:15:19;13.18;;;9.07;;
32611;SDS011;19030;49.478;8.986;2023-02-18T12:17:38;12.07;;;7.55;;
32611;SDS011;19030;49.478;8.986;2023-02-18T12:20:18;12.63;;;8.15;;
32611;SDS011;19030;49.478;8.986;2023-02-18T12:24:39;13.52;;;8.20;;
32611;SDS011;19030;49.478;8.986;2023-02-18T12:34:00;13.82;;;8.10;;
32611;SDS011;19030;49.478;8.986;2023-02-18T12:36:32;11.75;;;7.40;;
32611;SDS011;19030;49.478;8.986;2023-02-18T12:39:19;18.90;;;9.88;;
32611;SDS011;19030;49.478;8.986;2023-02-18T12:41:50;16.55;;;8.85;;
32611;SDS011;19030;49.478;8.986;2023-02-18T12:44:14;15.95;;;8.18;;
32611;SDS011;19030;49.478;8.986;2023-02-18T12:53:06;17.25;;;8.63;;
32611;SDS011;19030;49.478;8.986;2023-02-18T13:07:36;14.52;;;9.10;;
32611;SDS011;19030;49.478;8.986;2023-02-18T13:12:22;32.03;;;18.10;;
32611;SDS011;19030;49.478;8.986;2023-02-18T13:14:37;13.82;;;9.20;;
32611;SDS011;19030;49.478;8.986;2023-02-18T13:16:56;12.65;;;8.05;;
32611;SDS011;19030;49.478;8.986;2023-02-18T13:19:09;12.68;;;7.55;;
32611;SDS011;19030;49.478;8.986;2023-02-18T13:21:22;11.10;;;6.85;;
32611;SDS011;19030;49.478;8.986;2023-02-18T13:23:28;10.93;;;6.88;;
32611;SDS011;19030;49.478;8.986;2023-02-18T13:25:33;11.13;;;6.53;;
32611;SDS011;19030;49.478;8.986;2023-02-18T13:27:41;12.95;;;6.65;;
32611;SDS011;19030;49.478;8.986;2023-02-18T13:30:08;11.30;;;6.35;;
32611;SDS011;19030;49.478;8.986;2023-02-18T13:32:53;11.65;;;6.28;;
32611;SDS011;19030;49.478;8.986;2023-02-18T13:39:35;9.77;;;6.10;;
32611;SDS011;19030;49.478;8.986;2023-02-18T13:41:39;10.77;;;6.13;;
32611;SDS011;19030;49.478;8.986;2023-02-18T13:43:41;9.90;;;5.50;;
32611;SDS011;19030;49.478;8.986;2023-02-18T13:45:43;10.07;;;5.85;;
32611;SDS011;19030;49.478;8.986;2023-02-18T13:48:20;10.50;;;6.18;;
32611;SDS011;19030;49.478;8.986;2023-02-18T13:50:26;11.60;;;6.13;;
32611;SDS011;19030;49.478;8.986;2023-02-18T13:52:31;11.07;;;5.80;;
32611;SDS011;19030;49.478;8.986;2023-02-18T13:54:40;11.30;;;5.82;;
32611;SDS011;19030;49.478;8.986;2023-02-18T13:56:54;12.60;;;6.35;;
32611;SDS011;19030;49.478;8.986;2023-02-18T13:59:10;11.32;;;5.80;;